Time;durP1;ratioP1;P1;durP2;ratioP2;P2;SDS_P1;SDS_P2;PMS_P1;PMS_P2;Temp;Humidity;BMP_temperature;BMP_pressure;BME280_temperature;BME280_humidity;BME280_pressure;Samples;Min_cycle;Max_cycle;Signal;HPM_P1;HPM_P2
2022/09/13 00:00:48;;;;;;;7.65;6.35;;;;;;;;;;5075599;28;20028;-76
2022/09/13 00:03:14;;;;;;;10.15;6.38;;;;;;;;;;5063000;28;20028;-75
2022/09/13 00:05:40;;;;;;;9.23;6.88;;;;;;;;;;5080898;28;20150;-72
2022/09/13 00:08:06;;;;;;;8.43;5.88;;;;;;;;;;5079616;28;20482;-74
2022/09/13 00:10:39;;;;;;;8.32;6.07;;;;;;;;;;5078930;28;20033;-74
2022/09/13 00:13:07;;;;;;;9.27;6.82;;;;;;;;;;5062868;28;20046;-74
2022/09/13 00:15:33;;;;;;;7.30;6.03;;;;;;;;;;5058520;28;20075;-73
2022/09/13 00:17:59;;;;;;;7.15;6.40;;;;;;;;;;5070147;28;20032;-73
2022/09/13 00:20:25;;;;;;;8.10;6.28;;;;;;;;;;5071261;28;20020;-74
2022/09/13 00:22:51;;;;;;;6.82;6.13;;;;;;;;;;5070895;28;20028;-73
2022/09/13 00:25:17;;;;;;;7.70;6.65;;;;;;;;;;5071386;28;20024;-72
2022/09/13 00:27:44;;;;;;;9.68;6.78;;;;;;;;;;5071646;28;20100;-75
2022/09/13 00:30:10;;;;;;;8.88;6.93;;;;;;;;;;5070939;28;20429;-76
2022/09/13 00:32:36;;;;;;;9.27;7.15;;;;;;;;;;5070643;28;20021;-73
2022/09/13 00:35:02;;;;;;;8.27;7.47;;;;;;;;;;5070976;28;20062;-70
2022/09/13 00:37:28;;;;;;;10.20;7.82;;;;;;;;;;5069877;28;20032;-73
2022/09/13 00:39:54;;;;;;;11.98;6.93;;;;;;;;;;5052961;28;20028;-74
2022/09/13 00:42:34;;;;;;;12.70;7.47;;;;;;;;;;5052900;28;20368;-72
2022/09/13 00:45:06;;;;;;;12.52;7.55;;;;;;;;;;5058658;28;20390;-74
2022/09/13 00:47:35;;;;;;;8.27;7.38;;;;;;;;;;5070153;28;20036;-73
2022/09/13 00:50:15;;;;;;;11.88;8.05;;;;;;;;;;5070966;28;20543;-74
2022/09/13 00:52:43;;;;;;;9.20;7.60;;;;;;;;;;5070454;28;20083;-73
2022/09/13 00:55:20;;;;;;;9.85;7.38;;;;;;;;;;5070726;28;20494;-73
2022/09/13 00:57:46;;;;;;;8.40;7.13;;;;;;;;;;5069884;28;20044;-73
2022/09/13 01:00:14;;;;;;;8.02;7.22;;;;;;;;;;5063742;28;20055;-73
2022/09/13 01:02:41;;;;;;;9.02;7.35;;;;;;;;;;5070447;28;20024;-73
2022/09/13 01:05:08;;;;;;;8.27;6.47;;;;;;;;;;5070627;28;20386;-73
2022/09/13 01:07:34;;;;;;;8.68;7.15;;;;;;;;;;5051554;28;20028;-72
2022/09/13 01:10:02;;;;;;;10.30;7.45;;;;;;;;;;5051071;28;20016;-75
2022/09/13 01:12:43;;;;;;;10.57;6.75;;;;;;;;;;5052346;28;20020;-75
2022/09/13 01:15:09;;;;;;;10.57;6.75;;;;;;;;;;5070585;28;20029;-74
2022/09/13 01:17:38;;;;;;;7.78;6.78;;;;;;;;;;5069533;28;20115;-74
2022/09/13 01:20:04;;;;;;;7.38;6.65;;;;;;;;;;5070558;28;20445;-74
2022/09/13 01:22:30;;;;;;;9.50;6.80;;;;;;;;;;5070315;28;20081;-75
2022/09/13 01:25:09;;;;;;;10.52;6.35;;;;;;;;;;5070691;28;20021;-73
2022/09/13 01:27:41;;;;;;;8.48;6.85;;;;;;;;;;5069392;28;20028;-75
2022/09/13 01:30:19;;;;;;;8.57;6.55;;;;;;;;;;5070341;28;20492;-72
2022/09/13 01:33:04;;;;;;;14.93;7.57;;;;;;;;;;5070186;28;20020;-74
2022/09/13 01:35:30;;;;;;;7.78;6.68;;;;;;;;;;5071913;28;20016;-72
2022/09/13 01:37:56;;;;;;;10.45;7.22;;;;;;;;;;5073160;28;20039;-74
2022/09/13 01:40:51;;;;;;;7.60;6.30;;;;;;;;;;5074104;28;20044;-73
2022/09/13 01:43:36;;;;;;;7.53;6.70;;;;;;;;;;5040078;28;20033;-72
2022/09/13 01:46:02;;;;;;;7.97;6.40;;;;;;;;;;5055632;28;20127;-74
2022/09/13 01:48:46;;;;;;;9.18;7.40;;;;;;;;;;5073192;28;20446;-74
2022/09/13 01:51:32;;;;;;;17.13;7.55;;;;;;;;;;5073699;28;20008;-74
2022/09/13 01:53:58;;;;;;;10.93;6.80;;;;;;;;;;5074010;28;20031;-74
2022/09/13 01:56:32;;;;;;;10.18;6.45;;;;;;;;;;5074605;28;20020;-71
2022/09/13 01:59:09;;;;;;;8.27;7.15;;;;;;;;;;5048747;28;20036;-72
2022/09/13 02:01:49;;;;;;;7.20;6.50;;;;;;;;;;5060629;28;20024;-74
2022/09/13 02:04:18;;;;;;;8.18;7.05;;;;;;;;;;5073606;28;20466;-72
2022/09/13 02:06:46;;;;;;;7.80;6.60;;;;;;;;;;5073496;28;20052;-73
2022/09/13 02:09:14;;;;;;;8.55;6.30;;;;;;;;;;5070911;28;20028;-70
2022/09/13 02:11:42;;;;;;;8.38;7.05;;;;;;;;;;5073628;28;20056;-71
2022/09/13 02:14:16;;;;;;;7.95;7.15;;;;;;;;;;5073127;28;20149;-73
2022/09/13 02:16:49;;;;;;;8.52;6.93;;;;;;;;;;5073177;28;20025;-72
2022/09/13 02:19:17;;;;;;;10.15;7.22;;;;;;;;;;5072342;28;20033;-75
2022/09/13 02:21:46;;;;;;;7.82;6.68;;;;;;;;;;5073265;28;20024;-75
2022/09/13 02:24:14;;;;;;;10.45;6.75;;;;;;;;;;5055135;28;20048;-72
2022/09/13 02:26:45;;;;;;;7.68;6.68;;;;;;;;;;5073060;28;20021;-73
2022/09/13 02:29:12;;;;;;;8.00;7.18;;;;;;;;;;5065416;28;20047;-75
2022/09/13 02:31:47;;;;;;;8.32;6.95;;;;;;;;;;5073302;28;20035;-75
2022/09/13 02:34:20;;;;;;;8.23;6.95;;;;;;;;;;5076407;28;20099;-74
2022/09/13 02:36:48;;;;;;;7.53;6.72;;;;;;;;;;5078823;28;20020;-74
2022/09/13 02:39:15;;;;;;;7.43;6.68;;;;;;;;;;5072048;28;20086;-74
2022/09/13 02:41:41;;;;;;;9.10;6.72;;;;;;;;;;5072867;28;20021;-74
2022/09/13 02:44:17;;;;;;;9.73;6.60;;;;;;;;;;5072815;28;20032;-71
2022/09/13 02:46:43;;;;;;;10.02;6.93;;;;;;;;;;5072098;28;20490;-74
2022/09/13 02:49:23;;;;;;;7.18;6.45;;;;;;;;;;5080220;28;20046;-76
2022/09/13 02:51:52;;;;;;;8.90;6.18;;;;;;;;;;5077372;28;20486;-75
2022/09/13 02:54:18;;;;;;;10.20;6.60;;;;;;;;;;5073276;28;20017;-75
2022/09/13 02:56:49;;;;;;;9.55;6.00;;;;;;;;;;5072623;28;20067;-75
2022/09/13 02:59:17;;;;;;;10.85;6.32;;;;;;;;;;5046971;28;20028;-72
2022/09/13 03:01:46;;;;;;;8.15;6.45;;;;;;;;;;5072506;28;20031;-74
2022/09/13 03:04:12;;;;;;;8.45;7.55;;;;;;;;;;5072913;28;20030;-74
2022/09/13 03:06:40;;;;;;;9.20;6.97;;;;;;;;;;5072868;28;20020;-72
2022/09/13 03:09:06;;;;;;;10.48;7.40;;;;;;;;;;5074079;28;20021;-74
2022/09/13 03:11:38;;;;;;;9.25;7.05;;;;;;;;;;5076629;28;20016;-74
2022/09/13 03:14:13;;;;;;;10.43;7.25;;;;;;;;;;5076937;28;20024;-73
2022/09/13 03:16:42;;;;;;;12.23;7.20;;;;;;;;;;5075973;22;20068;-71
2022/09/13 03:19:11;;;;;;;10.43;7.07;;;;;;;;;;5070659;28;20476;-72
2022/09/13 03:21:53;;;;;;;11.70;7.38;;;;;;;;;;5051995;28;20104;-74
2022/09/13 03:24:23;;;;;;;9.27;7.63;;;;;;;;;;5051501;28;20427;-72
2022/09/13 03:26:52;;;;;;;10.55;8.05;;;;;;;;;;5060448;28;20016;-73
2022/09/13 03:29:21;;;;;;;10.50;7.45;;;;;;;;;;5052887;28;20037;-74
2022/09/13 03:32:19;;;;;;;8.15;7.03;;;;;;;;;;5053924;28;20025;-71
2022/09/13 03:34:45;;;;;;;8.30;7.00;;;;;;;;;;5016662;28;20028;-72
2022/09/13 03:37:14;;;;;;;8.68;6.45;;;;;;;;;;5070982;28;20436;-71
2022/09/13 03:39:43;;;;;;;8.23;7.43;;;;;;;;;;5071286;28;20020;-74
2022/09/13 03:42:15;;;;;;;8.38;7.00;;;;;;;;;;5071856;28;20043;-72
2022/09/13 03:44:43;;;;;;;10.00;6.78;;;;;;;;;;5071261;28;20016;-71
2022/09/13 03:47:10;;;;;;;9.10;7.18;;;;;;;;;;5048949;28;20028;-71
2022/09/13 03:49:37;;;;;;;9.48;6.75;;;;;;;;;;5069127;28;20012;-71
2022/09/13 03:52:03;;;;;;;8.23;6.97;;;;;;;;;;5071327;28;20092;-70
2022/09/13 03:54:31;;;;;;;7.90;7.10;;;;;;;;;;5052903;28;20502;-71
2022/09/13 03:57:26;;;;;;;9.73;6.72;;;;;;;;;;5070909;28;20024;-72
2022/09/13 03:59:56;;;;;;;10.05;7.25;;;;;;;;;;5040731;28;20028;-72
2022/09/13 04:02:23;;;;;;;9.13;6.75;;;;;;;;;;5053705;28;20107;-72
2022/09/13 04:04:49;;;;;;;8.77;7.75;;;;;;;;;;5070838;28;20025;-72
2022/09/13 04:07:22;;;;;;;8.70;6.43;;;;;;;;;;5070488;28;20052;-72
2022/09/13 04:09:49;;;;;;;8.50;7.47;;;;;;;;;;5070890;28;20099;-72
2022/09/13 04:12:15;;;;;;;8.30;7.13;;;;;;;;;;5070915;28;20107;-72
2022/09/13 04:14:45;;;;;;;8.57;7.30;;;;;;;;;;5070732;28;20423;-72
2022/09/13 04:17:11;;;;;;;8.23;6.78;;;;;;;;;;5051927;28;20029;-72
2022/09/13 04:19:37;;;;;;;12.68;7.50;;;;;;;;;;5070690;28;20415;-72
2022/09/13 04:22:03;;;;;;;9.68;7.65;;;;;;;;;;5071218;28;20028;-72
2022/09/13 04:24:30;;;;;;;8.93;7.32;;;;;;;;;;5052790;28;20023;-72
2022/09/13 04:26:56;;;;;;;8.20;7.18;;;;;;;;;;5070861;28;20391;-72
2022/09/13 04:29:23;;;;;;;11.20;7.65;;;;;;;;;;5052091;28;20021;-72
2022/09/13 04:31:50;;;;;;;12.95;8.07;;;;;;;;;;5071329;28;20020;-73
2022/09/13 04:34:17;;;;;;;9.77;8.23;;;;;;;;;;5070802;28;20386;-72
2022/09/13 04:36:43;;;;;;;10.85;7.95;;;;;;;;;;5071030;28;20012;-72
2022/09/13 04:39:09;;;;;;;8.77;7.88;;;;;;;;;;5052214;28;20031;-71
2022/09/13 04:41:35;;;;;;;14.35;9.05;;;;;;;;;;5070873;28;20107;-72
2022/09/13 04:44:01;;;;;;;12.95;8.50;;;;;;;;;;5071074;28;20031;-72
2022/09/13 04:46:28;;;;;;;10.85;8.27;;;;;;;;;;5070478;28;20023;-71
2022/09/13 04:48:54;;;;;;;11.60;9.32;;;;;;;;;;5070471;28;20071;-72
2022/09/13 04:51:20;;;;;;;13.13;9.77;;;;;;;;;;5070554;28;20085;-71
2022/09/13 04:53:52;;;;;;;12.18;9.45;;;;;;;;;;5053119;28;20025;-71
2022/09/13 04:56:18;;;;;;;10.38;8.45;;;;;;;;;;5070602;28;20245;-72
2022/09/13 04:58:44;;;;;;;11.93;8.25;;;;;;;;;;5047993;28;20116;-71
2022/09/13 05:01:10;;;;;;;11.50;8.38;;;;;;;;;;5067831;28;20119;-72
2022/09/13 05:03:37;;;;;;;9.75;7.47;;;;;;;;;;5070654;28;20033;-72
2022/09/13 05:06:04;;;;;;;10.20;7.60;;;;;;;;;;5070397;28;20028;-72
2022/09/13 05:08:30;;;;;;;10.43;6.55;;;;;;;;;;5069629;28;20033;-72
2022/09/13 05:10:57;;;;;;;8.77;6.57;;;;;;;;;;5072617;28;20099;-72
2022/09/13 05:13:23;;;;;;;10.07;7.00;;;;;;;;;;5074677;28;20025;-72
2022/09/13 05:15:49;;;;;;;9.82;6.63;;;;;;;;;;5055595;28;20073;-72
2022/09/13 05:18:15;;;;;;;6.20;5.60;;;;;;;;;;5073534;28;20029;-71
2022/09/13 05:20:41;;;;;;;8.07;6.45;;;;;;;;;;5074040;28;20401;-72
2022/09/13 05:23:07;;;;;;;7.40;5.45;;;;;;;;;;5073660;28;20024;-71
2022/09/13 05:25:33;;;;;;;9.38;5.72;;;;;;;;;;5073929;28;20031;-72
2022/09/13 05:27:59;;;;;;;9.52;4.90;;;;;;;;;;5073191;28;20028;-74
2022/09/13 05:30:25;;;;;;;8.55;4.43;;;;;;;;;;5056452;28;20466;-72
2022/09/13 05:32:51;;;;;;;9.30;5.00;;;;;;;;;;5073960;28;20513;-72
2022/09/13 05:35:17;;;;;;;9.68;4.28;;;;;;;;;;5073563;28;20035;-73
2022/09/13 05:37:42;;;;;;;6.13;4.38;;;;;;;;;;5072634;28;20024;-73
2022/09/13 05:40:09;;;;;;;5.35;4.50;;;;;;;;;;5073631;28;20513;-73
2022/09/13 05:42:35;;;;;;;12.05;4.68;;;;;;;;;;5073850;28;20029;-73
2022/09/13 05:45:01;;;;;;;7.57;4.47;;;;;;;;;;5073814;28;20039;-73
2022/09/13 05:47:27;;;;;;;6.57;4.30;;;;;;;;;;5072533;28;20401;-73
2022/09/13 05:49:53;;;;;;;6.50;4.22;;;;;;;;;;5073684;28;20069;-73
2022/09/13 05:52:19;;;;;;;7.07;4.18;;;;;;;;;;5073772;28;20028;-73
2022/09/13 05:54:45;;;;;;;6.18;4.05;;;;;;;;;;5055945;28;20487;-73
2022/09/13 05:57:11;;;;;;;6.82;4.35;;;;;;;;;;5072952;28;20017;-72
2022/09/13 05:59:37;;;;;;;4.50;3.92;;;;;;;;;;5065703;28;20359;-71
2022/09/13 06:02:03;;;;;;;6.38;4.00;;;;;;;;;;5072255;28;20021;-72
2022/09/13 06:04:29;;;;;;;5.20;3.97;;;;;;;;;;5055225;28;20070;-72
2022/09/13 06:06:55;;;;;;;7.40;4.03;;;;;;;;;;5072174;28;20411;-71
2022/09/13 06:09:21;;;;;;;4.22;3.75;;;;;;;;;;5071894;28;20016;-72
2022/09/13 06:11:47;;;;;;;7.35;4.55;;;;;;;;;;5063944;28;20039;-71
2022/09/13 06:14:13;;;;;;;5.50;4.07;;;;;;;;;;5058041;28;20029;-72
2022/09/13 06:16:39;;;;;;;7.63;3.60;;;;;;;;;;5055488;28;20043;-72
2022/09/13 06:19:05;;;;;;;6.35;4.07;;;;;;;;;;5072318;28;20082;-72
2022/09/13 06:21:31;;;;;;;8.15;3.80;;;;;;;;;;5058543;28;20029;-72
2022/09/13 06:23:57;;;;;;;6.88;3.83;;;;;;;;;;5073027;28;20028;-72
2022/09/13 06:26:24;;;;;;;8.38;3.60;;;;;;;;;;5072975;28;20025;-72
2022/09/13 06:28:52;;;;;;;9.32;4.13;;;;;;;;;;5072252;28;20048;-73
2022/09/13 06:31:19;;;;;;;5.50;3.45;;;;;;;;;;5073730;28;20090;-72
2022/09/13 06:33:45;;;;;;;6.88;3.70;;;;;;;;;;5073505;28;20025;-72
2022/09/13 06:36:13;;;;;;;4.50;3.17;;;;;;;;;;5072733;28;20020;-72
2022/09/13 06:38:40;;;;;;;5.60;3.90;;;;;;;;;;5072205;28;20082;-73
2022/09/13 06:41:08;;;;;;;3.83;3.53;;;;;;;;;;5072549;28;20107;-73
2022/09/13 06:43:34;;;;;;;11.02;4.55;;;;;;;;;;5054966;28;20143;-72
2022/09/13 06:46:05;;;;;;;7.15;4.22;;;;;;;;;;5072755;28;20090;-73
2022/09/13 06:48:32;;;;;;;5.38;3.42;;;;;;;;;;5071717;28;20074;-73
2022/09/13 06:51:02;;;;;;;9.15;4.15;;;;;;;;;;5072690;28;20387;-73
2022/09/13 06:53:28;;;;;;;10.18;4.30;;;;;;;;;;5072631;28;20020;-73
2022/09/13 06:56:07;;;;;;;8.40;4.47;;;;;;;;;;5072015;28;20024;-73
2022/09/13 06:58:33;;;;;;;10.52;4.82;;;;;;;;;;5071368;28;20455;-72
2022/09/13 07:01:12;;;;;;;5.13;4.40;;;;;;;;;;5053811;28;20506;-73
2022/09/13 07:03:39;;;;;;;6.97;4.60;;;;;;;;;;5072521;28;20032;-73
2022/09/13 07:06:09;;;;;;;8.93;4.80;;;;;;;;;;5072191;28;20031;-74
2022/09/13 07:08:35;;;;;;;7.82;4.93;;;;;;;;;;5071459;28;20581;-71
2022/09/13 07:11:01;;;;;;;10.38;4.55;;;;;;;;;;5072073;28;20027;-72
2022/09/13 07:13:27;;;;;;;8.40;4.30;;;;;;;;;;5072082;28;20028;-73
2022/09/13 07:15:53;;;;;;;4.80;3.72;;;;;;;;;;5053812;28;20025;-72
2022/09/13 07:18:19;;;;;;;8.07;4.32;;;;;;;;;;5071210;28;20028;-72
2022/09/13 07:20:45;;;;;;;9.27;4.75;;;;;;;;;;5071210;28;20036;-73
2022/09/13 07:23:11;;;;;;;9.48;4.72;;;;;;;;;;5071004;28;20032;-73
2022/09/13 07:25:37;;;;;;;11.93;5.15;;;;;;;;;;5070361;28;20025;-73
2022/09/13 07:28:03;;;;;;;9.27;5.70;;;;;;;;;;5067534;28;20528;-73
2022/09/13 07:30:29;;;;;;;6.95;4.57;;;;;;;;;;5053101;28;20071;-73
2022/09/13 07:32:55;;;;;;;12.27;6.07;;;;;;;;;;5069405;28;20483;-72
2022/09/13 07:35:21;;;;;;;10.52;4.60;;;;;;;;;;5070463;28;20031;-73
2022/09/13 07:37:47;;;;;;;10.25;4.28;;;;;;;;;;5069646;28;20051;-72
2022/09/13 07:40:13;;;;;;;7.00;4.47;;;;;;;;;;5071236;28;20024;-72
2022/09/13 07:42:39;;;;;;;7.85;4.22;;;;;;;;;;5051274;28;20744;-72
2022/09/13 07:45:05;;;;;;;6.97;4.22;;;;;;;;;;5071736;28;20025;-70
2022/09/13 07:47:34;;;;;;;5.40;4.15;;;;;;;;;;5069903;28;20065;-71
2022/09/13 07:50:00;;;;;;;8.07;4.03;;;;;;;;;;5051492;28;20021;-71
2022/09/13 07:52:28;;;;;;;5.97;4.18;;;;;;;;;;5069299;28;20024;-72
2022/09/13 07:54:54;;;;;;;12.70;3.88;;;;;;;;;;5070775;28;20017;-74
2022/09/13 07:57:22;;;;;;;7.45;4.80;;;;;;;;;;5069771;28;20490;-76
2022/09/13 07:59:48;;;;;;;11.27;5.10;;;;;;;;;;5045507;28;20558;-71
2022/09/13 08:02:15;;;;;;;11.27;5.72;;;;;;;;;;5070300;28;20048;-72
2022/09/13 08:04:41;;;;;;;8.02;5.28;;;;;;;;;;5053056;28;20023;-72
2022/09/13 08:07:07;;;;;;;14.00;6.38;;;;;;;;;;5070273;28;20025;-71
2022/09/13 08:09:33;;;;;;;9.50;7.28;;;;;;;;;;5051663;28;20303;-72
2022/09/13 08:11:59;;;;;;;10.07;8.05;;;;;;;;;;5069356;28;20028;-72
2022/09/13 08:14:25;;;;;;;11.57;7.50;;;;;;;;;;5049794;28;20111;-72
2022/09/13 08:16:55;;;;;;;11.13;7.63;;;;;;;;;;5059237;28;20347;-72
2022/09/13 08:19:21;;;;;;;10.65;8.52;;;;;;;;;;5068084;28;20024;-72
2022/09/13 08:21:47;;;;;;;11.75;9.05;;;;;;;;;;5050972;28;20020;-73
2022/09/13 08:24:16;;;;;;;11.23;8.60;;;;;;;;;;5069032;28;20549;-72
2022/09/13 08:26:42;;;;;;;12.68;9.07;;;;;;;;;;5068245;28;20052;-71
2022/09/13 08:29:08;;;;;;;11.90;7.82;;;;;;;;;;5060951;28;20030;-72
2022/09/13 08:31:34;;;;;;;9.85;7.68;;;;;;;;;;5069141;28;20023;-72
2022/09/13 08:34:00;;;;;;;13.18;7.75;;;;;;;;;;5070706;28;20016;-73
2022/09/13 08:36:27;;;;;;;10.65;7.80;;;;;;;;;;5070375;28;20099;-72
2022/09/13 08:38:54;;;;;;;11.48;6.30;;;;;;;;;;5069835;28;20020;-73
2022/09/13 08:41:23;;;;;;;12.45;6.90;;;;;;;;;;5052853;28;20055;-72
2022/09/13 08:44:08;;;;;;;7.90;6.50;;;;;;;;;;5070778;28;20027;-73
2022/09/13 08:46:47;;;;;;;7.82;6.55;;;;;;;;;;5057109;28;20020;-73
2022/09/13 08:49:13;;;;;;;9.85;6.20;;;;;;;;;;5068958;28;20024;-74
2022/09/13 08:51:48;;;;;;;13.73;6.13;;;;;;;;;;5082992;28;20100;-73
2022/09/13 08:54:15;;;;;;;12.77;6.38;;;;;;;;;;5071461;28;20012;-74
2022/09/13 08:56:47;;;;;;;11.27;7.03;;;;;;;;;;5050992;28;20367;-75
2022/09/13 08:59:23;;;;;;;11.00;6.57;;;;;;;;;;5064390;28;20048;-72
2022/09/13 09:01:58;;;;;;;10.82;6.80;;;;;;;;;;5042662;28;20336;-72
2022/09/13 09:04:31;;;;;;;11.07;6.93;;;;;;;;;;5065353;28;20466;-74
2022/09/13 09:07:06;;;;;;;10.07;7.50;;;;;;;;;;5064963;28;20432;-75
2022/09/13 09:09:35;;;;;;;8.15;6.50;;;;;;;;;;5041366;28;20024;-73
2022/09/13 09:12:20;;;;;;;11.77;7.82;;;;;;;;;;5051925;28;20031;-72
2022/09/13 09:14:58;;;;;;;8.60;5.90;;;;;;;;;;5052144;28;20036;-73
2022/09/13 09:17:28;;;;;;;15.63;5.80;;;;;;;;;;5104097;22;20054;-81
2022/09/13 09:20:17;;;;;;;7.38;5.78;;;;;;;;;;5081744;28;20020;-77
2022/09/13 09:22:51;;;;;;;8.75;5.72;;;;;;;;;;5045786;28;20043;-81
2022/09/13 09:25:19;;;;;;;13.55;6.05;;;;;;;;;;5070590;28;20028;-79
2022/09/13 09:27:45;;;;;;;10.38;5.80;;;;;;;;;;5057440;28;20040;-78
2022/09/13 09:30:14;;;;;;;10.88;5.95;;;;;;;;;;5085828;28;20031;-71
2022/09/13 09:32:40;;;;;;;11.10;6.65;;;;;;;;;;5067277;28;20033;-75
2022/09/13 09:35:26;;;;;;;10.05;5.25;;;;;;;;;;5046234;28;20052;-73
2022/09/13 09:38:03;;;;;;;10.82;5.72;;;;;;;;;;5060089;28;20119;-74
2022/09/13 09:40:29;;;;;;;8.40;5.85;;;;;;;;;;5047502;28;20044;-73
2022/09/13 09:42:56;;;;;;;5.65;3.70;;;;;;;;;;5060898;28;20086;-73
2022/09/13 09:45:29;;;;;;;7.43;3.92;;;;;;;;;;5080564;28;20024;-73
2022/09/13 09:47:56;;;;;;;4.32;3.83;;;;;;;;;;5071434;28;20036;-77
2022/09/13 09:50:28;;;;;;;5.00;2.58;;;;;;;;;;5069932;28;20052;-72
2022/09/13 09:53:01;;;;;;;4.95;3.38;;;;;;;;;;5072338;28;20001;-75
2022/09/13 09:55:28;;;;;;;4.65;3.75;;;;;;;;;;5077160;28;20029;-74
2022/09/13 09:57:56;;;;;;;4.15;3.75;;;;;;;;;;5075899;28;20020;-73
2022/09/13 10:00:23;;;;;;;3.63;3.00;;;;;;;;;;5076863;28;20025;-73
2022/09/13 10:02:51;;;;;;;2.65;2.20;;;;;;;;;;5073172;28;20032;-71
2022/09/13 10:05:22;;;;;;;3.90;3.17;;;;;;;;;;5073477;28;20032;-72
2022/09/13 10:07:56;;;;;;;4.25;3.05;;;;;;;;;;5068896;28;20039;-72
2022/09/13 10:10:29;;;;;;;3.03;2.70;;;;;;;;;;5073198;28;20051;-72
2022/09/13 10:12:56;;;;;;;4.03;2.97;;;;;;;;;;5073191;28;20025;-71
2022/09/13 10:15:31;;;;;;;6.63;3.22;;;;;;;;;;5073195;28;20023;-69
2022/09/13 10:18:14;;;;;;;6.78;3.03;;;;;;;;;;5072518;28;20032;-70
2022/09/13 10:20:41;;;;;;;32.92;9.75;;;;;;;;;;5073234;28;20081;-71
2022/09/13 10:23:20;;;;;;;14.80;7.45;;;;;;;;;;5073188;28;20066;-71
2022/09/13 10:26:05;;;;;;;10.13;4.13;;;;;;;;;;5088814;28;20474;-75
2022/09/13 10:28:33;;;;;;;7.90;3.55;;;;;;;;;;5061366;28;20024;-74
2022/09/13 10:31:04;;;;;;;14.63;5.05;;;;;;;;;;5078095;28;20035;-74
2022/09/13 10:33:30;;;;;;;;;;;;;;;;;;5073427;28;20044;-72
2022/09/13 10:35:57;;;;;;;16.70;9.48;;;;;;;;;;5073065;28;19963;-73
2022/09/13 10:38:25;;;;;;;2.83;2.45;;;;;;;;;;5088135;28;20024;-71
2022/09/13 10:40:51;;;;;;;6.13;3.55;;;;;;;;;;5070769;28;20032;-74
2022/09/13 10:43:18;;;;;;;7.55;3.60;;;;;;;;;;5071974;28;20025;-73
2022/09/13 10:45:49;;;;;;;7.93;3.95;;;;;;;;;;5069302;28;20485;-73
2022/09/13 10:48:16;;;;;;;5.10;3.10;;;;;;;;;;5070472;28;20029;-72
2022/09/13 10:51:00;;;;;;;4.75;3.28;;;;;;;;;;5071425;28;20498;-72
2022/09/13 10:53:29;;;;;;;3.97;3.15;;;;;;;;;;5088606;28;20021;-70
2022/09/13 10:55:55;;;;;;;5.70;3.00;;;;;;;;;;5088682;28;20029;-71
2022/09/13 10:58:21;;;;;;;2.63;2.38;;;;;;;;;;5073236;28;20032;-72
2022/09/13 11:00:59;;;;;;;2.75;2.53;;;;;;;;;;5074953;28;20032;-73
2022/09/13 11:03:45;;;;;;;2.90;2.50;;;;;;;;;;5089334;28;20482;-71
2022/09/13 11:06:20;;;;;;;4.07;2.38;;;;;;;;;;5073141;28;20497;-72
2022/09/13 11:08:46;;;;;;;2.78;2.20;;;;;;;;;;5071574;28;20028;-69
2022/09/13 11:11:18;;;;;;;4.00;2.47;;;;;;;;;;5072795;28;20031;-73
2022/09/13 11:14:03;;;;;;;3.60;2.83;;;;;;;;;;5072869;28;20479;-71
2022/09/13 11:16:32;;;;;;;3.20;2.28;;;;;;;;;;5072321;28;20029;-73
2022/09/13 11:19:04;;;;;;;2.53;2.33;;;;;;;;;;5071534;28;20025;-73
2022/09/13 11:21:36;;;;;;;3.40;2.42;;;;;;;;;;5087779;28;20057;-71
2022/09/13 11:24:32;;;;;;;2.10;1.90;;;;;;;;;;5087617;28;20379;-71
2022/09/13 11:27:16;;;;;;;5.88;1.90;;;;;;;;;;5017101;28;20038;-70
2022/09/13 11:29:57;;;;;;;2.80;1.98;;;;;;;;;;5087145;28;20060;-73
2022/09/13 11:32:39;;;;;;;4.32;2.40;;;;;;;;;;5072082;28;20082;-72
2022/09/13 11:35:05;;;;;;;2.78;2.10;;;;;;;;;;5071798;28;20040;-72
2022/09/13 11:37:40;;;;;;;2.85;2.10;;;;;;;;;;5070790;28;20027;-71
2022/09/13 11:40:12;;;;;;;4.85;2.17;;;;;;;;;;5071576;28;20523;-73
2022/09/13 11:42:38;;;;;;;2.35;2.03;;;;;;;;;;5071501;28;20029;-70
2022/09/13 11:45:23;;;;;;;4.30;2.20;;;;;;;;;;5071831;28;20047;-71
2022/09/13 11:47:52;;;;;;;4.10;2.10;;;;;;;;;;5084590;28;20021;-71
2022/09/13 11:50:27;;;;;;;2.75;2.20;;;;;;;;;;5086863;28;20016;-72
2022/09/13 11:53:17;;;;;;;2.70;2.05;;;;;;;;;;5071362;28;20020;-71
2022/09/13 11:55:47;;;;;;;2.28;2.13;;;;;;;;;;5071564;28;20050;-73
2022/09/13 11:58:17;;;;;;;3.00;2.35;;;;;;;;;;5086126;28;20052;-71
2022/09/13 12:00:56;;;;;;;2.37;2.13;;;;;;;;;;5064589;28;20414;-71
2022/09/13 12:03:25;;;;;;;4.53;2.30;;;;;;;;;;5071319;28;20037;-71
2022/09/13 12:05:54;;;;;;;3.10;1.90;;;;;;;;;;5071135;28;20029;-72
2022/09/13 12:08:20;;;;;;;3.60;2.30;;;;;;;;;;5070506;28;20025;-71
2022/09/13 12:10:55;;;;;;;2.92;1.92;;;;;;;;;;5086473;28;20025;-72
2022/09/13 12:13:24;;;;;;;3.67;2.10;;;;;;;;;;5071058;28;20028;-73
2022/09/13 12:15:55;;;;;;;3.08;2.17;;;;;;;;;;5071136;28;20019;-73
2022/09/13 12:18:30;;;;;;;3.30;2.30;;;;;;;;;;5070203;28;20044;-72
2022/09/13 12:21:11;;;;;;;2.97;2.33;;;;;;;;;;5070091;28;20029;-70
2022/09/13 12:23:47;;;;;;;5.05;2.20;;;;;;;;;;5071156;28;20021;-72
2022/09/13 12:26:21;;;;;;;2.95;2.00;;;;;;;;;;5070922;28;20039;-71
2022/09/13 12:28:48;;;;;;;3.65;1.83;;;;;;;;;;5070107;28;20025;-71
2022/09/13 12:31:19;;;;;;;4.40;1.90;;;;;;;;;;5070788;28;20341;-72
2022/09/13 12:33:46;;;;;;;2.38;2.00;;;;;;;;;;5086513;28;20394;-73
2022/09/13 12:36:12;;;;;;;2.95;2.03;;;;;;;;;;5085783;28;20013;-72
2022/09/13 12:38:41;;;;;;;2.63;2.08;;;;;;;;;;5070123;28;20363;-70
2022/09/13 12:41:19;;;;;;;2.00;1.80;;;;;;;;;;5070459;28;20027;-72
2022/09/13 12:44:01;;;;;;;2.72;1.77;;;;;;;;;;5061923;28;20112;-73
2022/09/13 12:46:53;;;;;;;1.83;1.65;;;;;;;;;;5085731;28;20488;-74
2022/09/13 12:49:40;;;;;;;3.08;1.90;;;;;;;;;;5046492;28;20528;-73
2022/09/13 12:52:06;;;;;;;2.33;1.63;;;;;;;;;;5070968;28;20056;-69
2022/09/13 12:54:32;;;;;;;1.52;1.30;;;;;;;;;;5070910;28;20430;-72
2022/09/13 12:57:00;;;;;;;3.45;1.55;;;;;;;;;;5069824;28;20052;-72
2022/09/13 12:59:50;;;;;;;2.28;1.27;;;;;;;;;;5070101;28;20086;-74
2022/09/13 13:02:36;;;;;;;1.85;1.50;;;;;;;;;;5062546;28;20128;-72
2022/09/13 13:05:04;;;;;;;3.63;1.60;;;;;;;;;;5040517;28;20103;-71
2022/09/13 13:07:33;;;;;;;3.53;1.67;;;;;;;;;;5069050;28;20028;-72
2022/09/13 13:09:59;;;;;;;5.93;1.80;;;;;;;;;;5070330;28;20475;-72
2022/09/13 13:12:28;;;;;;;2.92;1.65;;;;;;;;;;5070602;28;20048;-70
2022/09/13 13:14:55;;;;;;;1.45;1.35;;;;;;;;;;5070279;28;20023;-71
2022/09/13 13:17:41;;;;;;;1.60;1.48;;;;;;;;;;5069340;28;20028;-70
2022/09/13 13:20:27;;;;;;;1.60;1.50;;;;;;;;;;5070064;28;20186;-72
2022/09/13 13:23:02;;;;;;;1.75;1.63;;;;;;;;;;5085392;28;20380;-71
2022/09/13 13:25:39;;;;;;;2.42;1.52;;;;;;;;;;5070405;28;20031;-72
2022/09/13 13:28:24;;;;;;;3.35;1.65;;;;;;;;;;5069050;28;20025;-72
2022/09/13 13:30:51;;;;;;;6.28;1.65;;;;;;;;;;5064942;28;20029;-71
2022/09/13 13:33:19;;;;;;;2.30;1.50;;;;;;;;;;5074065;28;20046;-70
2022/09/13 13:35:46;;;;;;;2.78;1.58;;;;;;;;;;5073740;28;20385;-71
2022/09/13 13:38:30;;;;;;;2.80;1.35;;;;;;;;;;5073000;28;20090;-69
2022/09/13 13:41:05;;;;;;;3.83;1.50;;;;;;;;;;5073582;28;20332;-72
2022/09/13 13:43:33;;;;;;;4.20;1.77;;;;;;;;;;5073673;28;20032;-72
2022/09/13 13:46:19;;;;;;;1.60;1.33;;;;;;;;;;5073649;28;20028;-73
2022/09/13 13:48:45;;;;;;;4.18;1.67;;;;;;;;;;5072688;28;20024;-70
2022/09/13 13:51:11;;;;;;;1.33;1.23;;;;;;;;;;5088963;28;20027;-71
2022/09/13 13:53:38;;;;;;;4.28;1.48;;;;;;;;;;5073590;28;20355;-72
2022/09/13 13:56:16;;;;;;;1.25;1.02;;;;;;;;;;5073161;28;20035;-72
2022/09/13 13:58:49;;;;;;;1.75;1.10;;;;;;;;;;5087677;28;20035;-69
2022/09/13 14:01:22;;;;;;;3.42;1.38;;;;;;;;;;5073414;28;20021;-72
2022/09/13 14:04:07;;;;;;;2.15;1.40;;;;;;;;;;5088982;28;20029;-74
2022/09/13 14:06:35;;;;;;;2.05;1.60;;;;;;;;;;5073403;28;20033;-71
2022/09/13 14:09:05;;;;;;;1.20;1.10;;;;;;;;;;5072529;28;20039;-69
2022/09/13 14:11:43;;;;;;;2.15;1.20;;;;;;;;;;5073114;28;20024;-73
2022/09/13 14:14:48;;;;;;;3.50;1.55;;;;;;;;;;5073568;28;20103;-72
2022/09/13 14:17:14;;;;;;;1.50;1.08;;;;;;;;;;5010196;28;20066;-73
2022/09/13 14:19:42;;;;;;;3.63;1.15;;;;;;;;;;5010517;28;20030;-73
2022/09/13 14:22:27;;;;;;;1.65;1.42;;;;;;;;;;5040982;28;20402;-72
2022/09/13 14:25:12;;;;;;;1.48;1.05;;;;;;;;;;5059562;28;20402;-73
2022/09/13 14:27:39;;;;;;;3.95;1.20;;;;;;;;;;5071653;28;20115;-69
2022/09/13 14:30:26;;;;;;;2.05;0.82;;;;;;;;;;5073074;28;20492;-73
2022/09/13 14:32:56;;;;;;;1.67;1.30;;;;;;;;;;5061980;28;20032;-73
2022/09/13 14:35:22;;;;;;;2.83;1.42;;;;;;;;;;5072652;28;20024;-69
2022/09/13 14:37:48;;;;;;;1.52;1.20;;;;;;;;;;5071464;28;20421;-72
2022/09/13 14:40:19;;;;;;;1.75;1.23;;;;;;;;;;5072748;28;20394;-72
2022/09/13 14:42:46;;;;;;;2.35;1.23;;;;;;;;;;5071523;28;20038;-71
2022/09/13 14:45:16;;;;;;;2.35;1.40;;;;;;;;;;5072914;28;20037;-73
2022/09/13 14:47:48;;;;;;;2.60;1.27;;;;;;;;;;5071660;28;20055;-70
2022/09/13 14:50:15;;;;;;;3.53;1.48;;;;;;;;;;5088034;28;20112;-72
2022/09/13 14:52:48;;;;;;;2.50;1.65;;;;;;;;;;5086187;28;20031;-73
2022/09/13 14:55:18;;;;;;;7.75;1.50;;;;;;;;;;5072513;28;20409;-74
2022/09/13 14:57:47;;;;;;;2.40;1.48;;;;;;;;;;5071459;28;20538;-73
2022/09/13 15:00:13;;;;;;;2.67;1.27;;;;;;;;;;5072270;28;20020;-71